Portada
METAR-TAF:

METAR-TAF

Aeroports :

Aeroport Internacional de Moscou-Domodédovo

Moscou-Domodèdovo, Rússia

latitud: 55-24N, longitud: 037-54E, altitud: 179 m

Observació

L'informe es va fer fa 37 minuts, a les 15:30 UTC
Vent 4 kt del Sud, variant entre Sud/Sud-Est i Sud-Oest
Temperatura 17°C
Humitat 48%
Pressió 1023 hPa
Visibilitat 10 km o més
sense núvols per sota de 1500 mi sense presència de cumulonimbus.

METAR: UUDD 271530Z 18002MPS 150V230 CAVOK 17/06 Q1023 R14R/CLRD60 NOSIG

Hora: 19:07 (16:07 UTC)

Pronòstic

L'informe es va fer fa 2 hores i 9 minuts, a les 13:58 UTC
Pronòstic vàlid del 27 a les 15 UTC al 28 a les 21 UTC
Vent 6 kt del Sud/Sud-Oest
Visibilitat 10 km o més
Núvols disperses a una alçada de 3000 ft
Probabilitat 40% :
Temporalment
l' 27 a les 21 UTC al 28 a les 04 UTC
Visibilitat: 0300 m
Escasses núvols a una alçada de 300 ft
boira

TAF: UUDD 271358Z 2715/2821 20003MPS 9999 SCT030 TX22/2812Z TN07/2801Z PROB40 TEMPO 2721/2804 0300 FG FEW003

Observacions i pronòstics meteorològics de més de 4000 aeroports (METAR i TAF).

Les estacions disponibles són els punts grocs i vermells al mapa.

Posi el ratolí al punt desitjat per veure el nom de l'estació.

Feu clic per veure les observacions i els pronòstics meteorològics.

Per canviar el mapa: feu clic els botons verds amb una creu de color negre per apropar; al botó verd amb un guió per allunyar la imatge; o en les fletxes verdes per a mapes adjacents.


METAR-TAF: